We bring you up!

Munich Aviation Company

Munich Aviation Company

Munich Aviation Company

Munich Aviation Company

Sie finden uns auch auf: Munich Aviation Company auf Instagram

Flugwetter Augsburg

[Quelle: ADDS]
METAR
EDMA 300520Z AUTO 24009KT 9999 // FEW110/// M03/M05 Q1021 =
TAF
EDMA 131700Z 1318/1403 24010KT 9999 SCT030 =

Kontakt